sensor_id;sensor_type;location;lat;lon;timestamp;P1;durP1;ratioP1;P2;durP2;ratioP2
31037;SDS011;17702;47.590;7.666;2024-03-02T00:00:18;32.15;;;21.52;;
31037;SDS011;17702;47.590;7.666;2024-03-02T00:02:46;21.00;;;13.43;;
31037;SDS011;17702;47.590;7.666;2024-03-02T00:05:16;19.85;;;13.80;;
31037;SDS011;17702;47.590;7.666;2024-03-02T00:07:44;21.83;;;13.38;;
31037;SDS011;17702;47.590;7.666;2024-03-02T00:10:11;20.67;;;14.73;;
31037;SDS011;17702;47.590;7.666;2024-03-02T00:12:39;22.23;;;14.65;;
31037;SDS011;17702;47.590;7.666;2024-03-02T00:17:54;18.55;;;13.80;;
31037;SDS011;17702;47.590;7.666;2024-03-02T00:20:21;21.08;;;14.32;;
31037;SDS011;17702;47.590;7.666;2024-03-02T00:22:48;16.67;;;12.43;;
31037;SDS011;17702;47.590;7.666;2024-03-02T00:25:15;19.73;;;13.52;;
31037;SDS011;17702;47.590;7.666;2024-03-02T00:27:41;20.25;;;14.05;;
31037;SDS011;17702;47.590;7.666;2024-03-02T00:30:34;21.63;;;15.18;;
31037;SDS011;17702;47.590;7.666;2024-03-02T00:33:15;21.58;;;14.23;;
31037;SDS011;17702;47.590;7.666;2024-03-02T00:35:43;22.58;;;15.55;;
31037;SDS011;17702;47.590;7.666;2024-03-02T00:38:09;24.15;;;15.18;;
31037;SDS011;17702;47.590;7.666;2024-03-02T00:40:35;21.17;;;14.45;;
31037;SDS011;17702;47.590;7.666;2024-03-02T00:43:01;20.40;;;14.65;;
31037;SDS011;17702;47.590;7.666;2024-03-02T00:45:28;25.85;;;16.13;;
31037;SDS011;17702;47.590;7.666;2024-03-02T00:47:54;22.38;;;15.38;;
31037;SDS011;17702;47.590;7.666;2024-03-02T00:50:20;20.10;;;15.00;;
31037;SDS011;17702;47.590;7.666;2024-03-02T00:52:46;21.90;;;15.15;;
31037;SDS011;17702;47.590;7.666;2024-03-02T00:55:13;21.58;;;14.88;;
31037;SDS011;17702;47.590;7.666;2024-03-02T00:57:39;20.42;;;14.88;;
31037;SDS011;17702;47.590;7.666;2024-03-02T01:00:05;22.40;;;15.38;;
31037;SDS011;17702;47.590;7.666;2024-03-02T01:02:35;23.98;;;15.60;;
31037;SDS011;17702;47.590;7.666;2024-03-02T01:05:00;22.33;;;14.90;;
31037;SDS011;17702;47.590;7.666;2024-03-02T01:07:26;24.02;;;15.93;;
31037;SDS011;17702;47.590;7.666;2024-03-02T01:09:52;24.13;;;17.55;;
31037;SDS011;17702;47.590;7.666;2024-03-02T01:12:17;24.23;;;15.77;;
31037;SDS011;17702;47.590;7.666;2024-03-02T01:14:43;27.13;;;16.98;;
31037;SDS011;17702;47.590;7.666;2024-03-02T01:17:08;25.15;;;16.75;;
31037;SDS011;17702;47.590;7.666;2024-03-02T01:19:34;34.50;;;24.10;;
31037;SDS011;17702;47.590;7.666;2024-03-02T01:21:59;23.70;;;16.02;;
31037;SDS011;17702;47.590;7.666;2024-03-02T01:24:25;22.42;;;15.77;;
31037;SDS011;17702;47.590;7.666;2024-03-02T01:26:50;21.65;;;15.57;;
31037;SDS011;17702;47.590;7.666;2024-03-02T01:29:16;21.48;;;15.50;;
31037;SDS011;17702;47.590;7.666;2024-03-02T01:31:41;22.00;;;16.65;;
31037;SDS011;17702;47.590;7.666;2024-03-02T01:34:07;24.55;;;16.75;;
31037;SDS011;17702;47.590;7.666;2024-03-02T01:36:33;31.65;;;18.90;;
31037;SDS011;17702;47.590;7.666;2024-03-02T01:38:59;32.00;;;18.83;;
31037;SDS011;17702;47.590;7.666;2024-03-02T01:41:24;41.78;;;31.70;;
31037;SDS011;17702;47.590;7.666;2024-03-02T01:43:50;24.75;;;17.02;;
31037;SDS011;17702;47.590;7.666;2024-03-02T01:46:16;21.85;;;15.65;;
31037;SDS011;17702;47.590;7.666;2024-03-02T01:48:41;24.50;;;16.30;;
31037;SDS011;17702;47.590;7.666;2024-03-02T01:51:07;26.08;;;17.08;;
31037;SDS011;17702;47.590;7.666;2024-03-02T01:53:33;20.80;;;15.65;;
31037;SDS011;17702;47.590;7.666;2024-03-02T01:55:59;25.58;;;16.60;;
31037;SDS011;17702;47.590;7.666;2024-03-02T01:58:26;24.90;;;17.45;;
31037;SDS011;17702;47.590;7.666;2024-03-02T02:00:52;24.67;;;17.02;;
31037;SDS011;17702;47.590;7.666;2024-03-02T02:03:18;24.45;;;16.48;;
31037;SDS011;17702;47.590;7.666;2024-03-02T02:05:43;21.70;;;16.55;;
31037;SDS011;17702;47.590;7.666;2024-03-02T02:08:09;24.35;;;16.95;;
31037;SDS011;17702;47.590;7.666;2024-03-02T02:10:35;25.17;;;17.02;;
31037;SDS011;17702;47.590;7.666;2024-03-02T02:13:01;26.10;;;18.48;;
31037;SDS011;17702;47.590;7.666;2024-03-02T02:15:30;27.20;;;17.92;;
31037;SDS011;17702;47.590;7.666;2024-03-02T02:17:56;25.88;;;17.02;;
31037;SDS011;17702;47.590;7.666;2024-03-02T02:20:23;24.73;;;17.42;;
31037;SDS011;17702;47.590;7.666;2024-03-02T02:22:59;25.92;;;16.83;;
31037;SDS011;17702;47.590;7.666;2024-03-02T02:25:26;27.00;;;17.73;;
31037;SDS011;17702;47.590;7.666;2024-03-02T02:27:53;23.92;;;17.05;;
31037;SDS011;17702;47.590;7.666;2024-03-02T02:30:19;23.60;;;16.65;;
31037;SDS011;17702;47.590;7.666;2024-03-02T02:32:49;21.25;;;15.80;;
31037;SDS011;17702;47.590;7.666;2024-03-02T02:35:15;21.08;;;15.73;;
31037;SDS011;17702;47.590;7.666;2024-03-02T02:37:41;27.40;;;17.10;;
31037;SDS011;17702;47.590;7.666;2024-03-02T02:40:06;23.48;;;16.27;;
31037;SDS011;17702;47.590;7.666;2024-03-02T02:42:32;22.48;;;15.52;;
31037;SDS011;17702;47.590;7.666;2024-03-02T02:44:58;23.48;;;16.45;;
31037;SDS011;17702;47.590;7.666;2024-03-02T02:47:23;23.13;;;16.42;;
31037;SDS011;17702;47.590;7.666;2024-03-02T02:49:50;22.05;;;15.63;;
31037;SDS011;17702;47.590;7.666;2024-03-02T02:52:15;26.67;;;16.88;;
31037;SDS011;17702;47.590;7.666;2024-03-02T02:54:41;23.98;;;17.05;;
31037;SDS011;17702;47.590;7.666;2024-03-02T02:57:07;25.08;;;16.48;;
31037;SDS011;17702;47.590;7.666;2024-03-02T02:59:32;24.23;;;16.50;;
31037;SDS011;17702;47.590;7.666;2024-03-02T03:01:58;24.90;;;16.80;;
31037;SDS011;17702;47.590;7.666;2024-03-02T03:04:24;23.45;;;16.55;;
31037;SDS011;17702;47.590;7.666;2024-03-02T03:06:49;26.30;;;17.15;;
31037;SDS011;17702;47.590;7.666;2024-03-02T03:09:15;25.27;;;16.65;;
31037;SDS011;17702;47.590;7.666;2024-03-02T03:11:40;25.45;;;15.90;;
31037;SDS011;17702;47.590;7.666;2024-03-02T03:14:06;20.95;;;16.00;;
31037;SDS011;17702;47.590;7.666;2024-03-02T03:16:31;23.77;;;16.02;;
31037;SDS011;17702;47.590;7.666;2024-03-02T03:18:57;48.72;;;31.02;;
31037;SDS011;17702;47.590;7.666;2024-03-02T03:21:22;27.23;;;17.83;;
31037;SDS011;17702;47.590;7.666;2024-03-02T03:23:48;26.73;;;16.70;;
31037;SDS011;17702;47.590;7.666;2024-03-02T03:26:13;24.63;;;16.40;;
31037;SDS011;17702;47.590;7.666;2024-03-02T03:28:39;24.08;;;16.35;;
31037;SDS011;17702;47.590;7.666;2024-03-02T03:31:05;23.90;;;16.55;;
31037;SDS011;17702;47.590;7.666;2024-03-02T03:33:31;23.60;;;16.08;;
31037;SDS011;17702;47.590;7.666;2024-03-02T03:35:56;26.35;;;15.88;;
31037;SDS011;17702;47.590;7.666;2024-03-02T03:38:22;26.35;;;16.88;;
31037;SDS011;17702;47.590;7.666;2024-03-02T03:40:47;22.75;;;16.08;;
31037;SDS011;17702;47.590;7.666;2024-03-02T03:43:13;23.67;;;16.35;;
31037;SDS011;17702;47.590;7.666;2024-03-02T03:45:38;27.15;;;17.38;;
31037;SDS011;17702;47.590;7.666;2024-03-02T03:48:04;23.85;;;16.13;;
31037;SDS011;17702;47.590;7.666;2024-03-02T03:50:30;21.15;;;15.23;;
31037;SDS011;17702;47.590;7.666;2024-03-02T03:52:55;22.23;;;15.55;;
31037;SDS011;17702;47.590;7.666;2024-03-02T03:55:21;24.63;;;16.60;;
31037;SDS011;17702;47.590;7.666;2024-03-02T03:57:46;21.45;;;15.27;;
31037;SDS011;17702;47.590;7.666;2024-03-02T04:00:12;19.50;;;14.07;;
31037;SDS011;17702;47.590;7.666;2024-03-02T04:02:38;23.80;;;14.98;;
31037;SDS011;17702;47.590;7.666;2024-03-02T04:05:04;22.17;;;15.02;;
31037;SDS011;17702;47.590;7.666;2024-03-02T04:07:33;25.50;;;15.35;;
31037;SDS011;17702;47.590;7.666;2024-03-02T04:10:06;23.88;;;15.63;;
31037;SDS011;17702;47.590;7.666;2024-03-02T04:12:33;24.02;;;15.05;;
31037;SDS011;17702;47.590;7.666;2024-03-02T04:15:00;23.40;;;15.48;;
31037;SDS011;17702;47.590;7.666;2024-03-02T04:17:26;21.40;;;14.95;;
31037;SDS011;17702;47.590;7.666;2024-03-02T04:19:52;24.52;;;15.88;;
31037;SDS011;17702;47.590;7.666;2024-03-02T04:22:17;21.75;;;15.63;;
31037;SDS011;17702;47.590;7.666;2024-03-02T04:24:43;22.95;;;14.95;;
31037;SDS011;17702;47.590;7.666;2024-03-02T04:27:08;24.10;;;15.75;;
31037;SDS011;17702;47.590;7.666;2024-03-02T04:29:34;26.40;;;15.60;;
31037;SDS011;17702;47.590;7.666;2024-03-02T04:31:59;24.95;;;15.68;;
31037;SDS011;17702;47.590;7.666;2024-03-02T04:34:25;20.83;;;15.07;;
31037;SDS011;17702;47.590;7.666;2024-03-02T04:36:50;20.75;;;14.85;;
31037;SDS011;17702;47.590;7.666;2024-03-02T04:39:16;21.83;;;15.45;;
31037;SDS011;17702;47.590;7.666;2024-03-02T04:41:42;21.73;;;14.57;;
31037;SDS011;17702;47.590;7.666;2024-03-02T04:44:07;23.10;;;15.23;;
31037;SDS011;17702;47.590;7.666;2024-03-02T04:46:33;22.95;;;15.02;;
31037;SDS011;17702;47.590;7.666;2024-03-02T04:48:58;22.40;;;14.50;;
31037;SDS011;17702;47.590;7.666;2024-03-02T04:51:24;21.00;;;14.20;;
31037;SDS011;17702;47.590;7.666;2024-03-02T04:53:49;19.55;;;14.52;;
31037;SDS011;17702;47.590;7.666;2024-03-02T04:56:15;21.90;;;15.23;;
31037;SDS011;17702;47.590;7.666;2024-03-02T04:59:08;23.00;;;14.80;;
31037;SDS011;17702;47.590;7.666;2024-03-02T05:01:34;21.95;;;15.02;;
31037;SDS011;17702;47.590;7.666;2024-03-02T05:03:59;20.25;;;14.23;;
31037;SDS011;17702;47.590;7.666;2024-03-02T05:06:25;22.55;;;15.02;;
31037;SDS011;17702;47.590;7.666;2024-03-02T05:08:50;23.27;;;14.13;;
31037;SDS011;17702;47.590;7.666;2024-03-02T05:11:16;22.73;;;14.38;;
31037;SDS011;17702;47.590;7.666;2024-03-02T05:14:13;20.42;;;14.07;;
31037;SDS011;17702;47.590;7.666;2024-03-02T05:16:39;21.30;;;14.40;;
31037;SDS011;17702;47.590;7.666;2024-03-02T05:19:06;20.88;;;14.85;;
31037;SDS011;17702;47.590;7.666;2024-03-02T05:21:32;20.52;;;14.55;;
31037;SDS011;17702;47.590;7.666;2024-03-02T05:23:58;23.35;;;14.50;;
31037;SDS011;17702;47.590;7.666;2024-03-02T05:26:24;21.90;;;15.32;;
31037;SDS011;17702;47.590;7.666;2024-03-02T05:28:50;22.08;;;14.57;;
31037;SDS011;17702;47.590;7.666;2024-03-02T05:31:17;18.60;;;13.93;;
31037;SDS011;17702;47.590;7.666;2024-03-02T05:33:43;19.30;;;13.77;;
31037;SDS011;17702;47.590;7.666;2024-03-02T05:36:08;19.92;;;14.30;;
31037;SDS011;17702;47.590;7.666;2024-03-02T05:38:34;21.17;;;14.55;;
31037;SDS011;17702;47.590;7.666;2024-03-02T05:41:00;20.08;;;13.70;;
31037;SDS011;17702;47.590;7.666;2024-03-02T05:43:26;20.02;;;14.38;;
31037;SDS011;17702;47.590;7.666;2024-03-02T05:45:52;18.67;;;13.95;;
31037;SDS011;17702;47.590;7.666;2024-03-02T05:48:17;19.95;;;14.68;;
31037;SDS011;17702;47.590;7.666;2024-03-02T05:50:43;19.60;;;13.52;;
31037;SDS011;17702;47.590;7.666;2024-03-02T05:53:09;19.85;;;14.23;;
31037;SDS011;17702;47.590;7.666;2024-03-02T05:55:34;22.52;;;14.77;;
31037;SDS011;17702;47.590;7.666;2024-03-02T05:58:00;20.08;;;13.57;;
31037;SDS011;17702;47.590;7.666;2024-03-02T06:00:31;19.42;;;13.95;;
31037;SDS011;17702;47.590;7.666;2024-03-02T06:02:57;22.48;;;13.63;;
31037;SDS011;17702;47.590;7.666;2024-03-02T06:05:23;18.67;;;13.30;;
31037;SDS011;17702;47.590;7.666;2024-03-02T06:07:49;22.35;;;15.23;;
31037;SDS011;17702;47.590;7.666;2024-03-02T06:10:15;24.10;;;15.13;;
31037;SDS011;17702;47.590;7.666;2024-03-02T06:12:41;18.38;;;13.40;;
31037;SDS011;17702;47.590;7.666;2024-03-02T06:15:06;18.92;;;13.60;;
31037;SDS011;17702;47.590;7.666;2024-03-02T06:17:32;21.88;;;14.55;;
31037;SDS011;17702;47.590;7.666;2024-03-02T06:20:00;21.27;;;14.48;;
31037;SDS011;17702;47.590;7.666;2024-03-02T06:22:25;19.02;;;13.80;;
31037;SDS011;17702;47.590;7.666;2024-03-02T06:24:51;23.25;;;14.50;;
31037;SDS011;17702;47.590;7.666;2024-03-02T06:27:17;24.95;;;15.57;;
31037;SDS011;17702;47.590;7.666;2024-03-02T06:29:42;22.67;;;14.65;;
31037;SDS011;17702;47.590;7.666;2024-03-02T06:32:08;21.98;;;15.65;;
31037;SDS011;17702;47.590;7.666;2024-03-02T06:34:33;22.63;;;14.98;;
31037;SDS011;17702;47.590;7.666;2024-03-02T06:36:59;22.55;;;15.35;;
31037;SDS011;17702;47.590;7.666;2024-03-02T06:39:25;25.15;;;15.10;;
31037;SDS011;17702;47.590;7.666;2024-03-02T06:41:51;21.83;;;14.88;;
31037;SDS011;17702;47.590;7.666;2024-03-02T06:44:16;21.45;;;14.55;;
31037;SDS011;17702;47.590;7.666;2024-03-02T06:46:42;20.23;;;14.20;;
31037;SDS011;17702;47.590;7.666;2024-03-02T06:49:08;20.75;;;13.32;;
31037;SDS011;17702;47.590;7.666;2024-03-02T06:51:35;22.27;;;14.55;;
31037;SDS011;17702;47.590;7.666;2024-03-02T06:54:01;20.95;;;13.70;;
31037;SDS011;17702;47.590;7.666;2024-03-02T06:56:26;24.08;;;14.02;;
31037;SDS011;17702;47.590;7.666;2024-03-02T06:58:52;22.42;;;14.02;;
31037;SDS011;17702;47.590;7.666;2024-03-02T07:01:17;21.65;;;14.00;;
31037;SDS011;17702;47.590;7.666;2024-03-02T07:03:43;23.58;;;15.27;;
31037;SDS011;17702;47.590;7.666;2024-03-02T07:06:09;26.10;;;15.38;;
31037;SDS011;17702;47.590;7.666;2024-03-02T07:08:34;21.10;;;14.02;;
31037;SDS011;17702;47.590;7.666;2024-03-02T07:11:00;25.77;;;14.90;;
31037;SDS011;17702;47.590;7.666;2024-03-02T07:13:26;23.77;;;14.77;;
31037;SDS011;17702;47.590;7.666;2024-03-02T07:15:51;20.33;;;14.27;;
31037;SDS011;17702;47.590;7.666;2024-03-02T07:18:29;24.42;;;14.85;;
31037;SDS011;17702;47.590;7.666;2024-03-02T07:20:55;22.60;;;14.13;;
31037;SDS011;17702;47.590;7.666;2024-03-02T07:23:24;23.95;;;15.43;;
31037;SDS011;17702;47.590;7.666;2024-03-02T07:25:52;23.98;;;15.60;;
31037;SDS011;17702;47.590;7.666;2024-03-02T07:28:21;26.10;;;16.33;;
31037;SDS011;17702;47.590;7.666;2024-03-02T07:30:47;25.70;;;15.77;;
31037;SDS011;17702;47.590;7.666;2024-03-02T07:33:23;24.10;;;15.18;;
31037;SDS011;17702;47.590;7.666;2024-03-02T07:35:49;23.17;;;15.40;;
31037;SDS011;17702;47.590;7.666;2024-03-02T07:38:14;24.75;;;14.60;;
31037;SDS011;17702;47.590;7.666;2024-03-02T07:40:40;24.98;;;14.90;;
31037;SDS011;17702;47.590;7.666;2024-03-02T07:43:06;21.85;;;14.88;;
31037;SDS011;17702;47.590;7.666;2024-03-02T07:45:31;24.35;;;15.75;;
31037;SDS011;17702;47.590;7.666;2024-03-02T07:47:57;23.63;;;15.38;;
31037;SDS011;17702;47.590;7.666;2024-03-02T07:50:23;21.90;;;14.65;;
31037;SDS011;17702;47.590;7.666;2024-03-02T07:52:48;22.27;;;14.70;;
31037;SDS011;17702;47.590;7.666;2024-03-02T07:55:14;22.38;;;14.45;;
31037;SDS011;17702;47.590;7.666;2024-03-02T07:57:40;23.10;;;14.82;;
31037;SDS011;17702;47.590;7.666;2024-03-02T08:00:05;21.88;;;14.60;;
31037;SDS011;17702;47.590;7.666;2024-03-02T08:02:31;24.10;;;15.25;;
31037;SDS011;17702;47.590;7.666;2024-03-02T08:04:57;21.75;;;13.98;;
31037;SDS011;17702;47.590;7.666;2024-03-02T08:07:23;20.95;;;14.23;;
31037;SDS011;17702;47.590;7.666;2024-03-02T08:09:48;20.73;;;14.95;;
31037;SDS011;17702;47.590;7.666;2024-03-02T08:12:14;22.27;;;13.90;;
31037;SDS011;17702;47.590;7.666;2024-03-02T08:14:39;18.58;;;12.77;;
31037;SDS011;17702;47.590;7.666;2024-03-02T08:17:05;21.63;;;13.75;;
31037;SDS011;17702;47.590;7.666;2024-03-02T08:19:34;18.83;;;13.63;;
31037;SDS011;17702;47.590;7.666;2024-03-02T08:22:00;22.40;;;13.70;;
31037;SDS011;17702;47.590;7.666;2024-03-02T08:24:26;18.20;;;12.10;;
31037;SDS011;17702;47.590;7.666;2024-03-02T08:26:51;21.52;;;13.45;;
31037;SDS011;17702;47.590;7.666;2024-03-02T08:29:17;21.05;;;14.43;;
31037;SDS011;17702;47.590;7.666;2024-03-02T08:31:43;22.17;;;13.75;;
31037;SDS011;17702;47.590;7.666;2024-03-02T08:34:08;25.00;;;15.43;;
31037;SDS011;17702;47.590;7.666;2024-03-02T08:36:34;21.85;;;14.57;;
31037;SDS011;17702;47.590;7.666;2024-03-02T08:39:00;22.88;;;14.52;;
31037;SDS011;17702;47.590;7.666;2024-03-02T08:41:27;24.52;;;15.73;;
31037;SDS011;17702;47.590;7.666;2024-03-02T08:43:52;20.65;;;14.48;;
31037;SDS011;17702;47.590;7.666;2024-03-02T08:46:18;23.95;;;14.65;;
31037;SDS011;17702;47.590;7.666;2024-03-02T08:48:43;22.15;;;13.88;;
31037;SDS011;17702;47.590;7.666;2024-03-02T08:51:09;23.95;;;14.35;;
31037;SDS011;17702;47.590;7.666;2024-03-02T08:53:35;19.52;;;13.82;;
31037;SDS011;17702;47.590;7.666;2024-03-02T08:56:01;21.13;;;13.93;;
31037;SDS011;17702;47.590;7.666;2024-03-02T08:58:27;21.60;;;14.75;;
31037;SDS011;17702;47.590;7.666;2024-03-02T09:00:53;21.40;;;14.52;;
31037;SDS011;17702;47.590;7.666;2024-03-02T09:03:19;19.25;;;13.82;;
31037;SDS011;17702;47.590;7.666;2024-03-02T09:05:45;21.40;;;13.57;;
31037;SDS011;17702;47.590;7.666;2024-03-02T09:08:10;17.48;;;12.98;;
31037;SDS011;17702;47.590;7.666;2024-03-02T09:10:36;22.40;;;14.02;;
31037;SDS011;17702;47.590;7.666;2024-03-02T09:13:03;20.45;;;13.65;;
31037;SDS011;17702;47.590;7.666;2024-03-02T09:15:29;19.25;;;12.38;;
31037;SDS011;17702;47.590;7.666;2024-03-02T09:17:54;17.02;;;12.50;;
31037;SDS011;17702;47.590;7.666;2024-03-02T09:20:20;22.10;;;13.63;;
31037;SDS011;17702;47.590;7.666;2024-03-02T09:22:45;19.13;;;12.63;;
31037;SDS011;17702;47.590;7.666;2024-03-02T09:25:12;15.65;;;11.52;;
31037;SDS011;17702;47.590;7.666;2024-03-02T09:27:38;15.90;;;12.32;;
31037;SDS011;17702;47.590;7.666;2024-03-02T09:30:07;16.48;;;12.20;;
31037;SDS011;17702;47.590;7.666;2024-03-02T09:32:33;16.08;;;11.95;;
31037;SDS011;17702;47.590;7.666;2024-03-02T09:34:59;13.57;;;10.95;;
31037;SDS011;17702;47.590;7.666;2024-03-02T09:37:25;16.35;;;11.77;;
31037;SDS011;17702;47.590;7.666;2024-03-02T09:39:51;16.08;;;10.85;;
31037;SDS011;17702;47.590;7.666;2024-03-02T09:42:17;15.25;;;10.63;;
31037;SDS011;17702;47.590;7.666;2024-03-02T09:44:43;12.43;;;9.52;;
31037;SDS011;17702;47.590;7.666;2024-03-02T09:47:09;12.45;;;10.05;;
31037;SDS011;17702;47.590;7.666;2024-03-02T09:49:34;12.85;;;9.70;;
31037;SDS011;17702;47.590;7.666;2024-03-02T09:52:00;17.27;;;10.73;;
31037;SDS011;17702;47.590;7.666;2024-03-02T09:54:28;13.68;;;10.05;;
31037;SDS011;17702;47.590;7.666;2024-03-02T09:56:53;12.35;;;9.48;;
31037;SDS011;17702;47.590;7.666;2024-03-02T09:59:19;12.43;;;9.65;;
31037;SDS011;17702;47.590;7.666;2024-03-02T10:02:03;15.30;;;10.98;;
31037;SDS011;17702;47.590;7.666;2024-03-02T10:04:32;11.38;;;9.35;;
31037;SDS011;17702;47.590;7.666;2024-03-02T10:07:31;13.70;;;9.68;;
31037;SDS011;17702;47.590;7.666;2024-03-02T10:09:50;12.35;;;9.35;;
31037;SDS011;17702;47.590;7.666;2024-03-02T10:12:17;12.70;;;7.38;;
31037;SDS011;17702;47.590;7.666;2024-03-02T10:14:43;9.63;;;8.25;;
31037;SDS011;17702;47.590;7.666;2024-03-02T10:17:10;14.38;;;8.48;;
31037;SDS011;17702;47.590;7.666;2024-03-02T10:19:37;9.75;;;7.97;;
31037;SDS011;17702;47.590;7.666;2024-03-02T10:22:07;9.90;;;7.25;;
31037;SDS011;17702;47.590;7.666;2024-03-02T10:24:35;10.87;;;8.17;;
31037;SDS011;17702;47.590;7.666;2024-03-02T10:27:14;10.15;;;7.63;;
31037;SDS011;17702;47.590;7.666;2024-03-02T10:29:41;8.18;;;7.20;;
31037;SDS011;17702;47.590;7.666;2024-03-02T10:32:10;6.57;;;5.43;;
31037;SDS011;17702;47.590;7.666;2024-03-02T10:34:36;8.20;;;6.95;;
31037;SDS011;17702;47.590;7.666;2024-03-02T10:37:03;8.60;;;6.20;;
31037;SDS011;17702;47.590;7.666;2024-03-02T10:39:28;7.53;;;6.22;;
31037;SDS011;17702;47.590;7.666;2024-03-02T10:41:56;6.75;;;6.07;;
31037;SDS011;17702;47.590;7.666;2024-03-02T10:44:23;7.93;;;6.35;;
31037;SDS011;17702;47.590;7.666;2024-03-02T10:46:50;3.13;;;2.83;;
31037;SDS011;17702;47.590;7.666;2024-03-02T10:49:17;3.33;;;3.10;;
31037;SDS011;17702;47.590;7.666;2024-03-02T10:51:45;6.10;;;5.50;;
31037;SDS011;17702;47.590;7.666;2024-03-02T10:54:11;6.32;;;5.53;;
31037;SDS011;17702;47.590;7.666;2024-03-02T10:56:40;8.38;;;7.45;;
31037;SDS011;17702;47.590;7.666;2024-03-02T11:01:53;6.47;;;4.95;;
31037;SDS011;17702;47.590;7.666;2024-03-02T11:04:23;5.53;;;5.03;;
31037;SDS011;17702;47.590;7.666;2024-03-02T11:06:51;9.00;;;7.50;;
31037;SDS011;17702;47.590;7.666;2024-03-02T11:09:21;6.07;;;4.25;;
31037;SDS011;17702;47.590;7.666;2024-03-02T11:14:52;5.53;;;5.03;;
31037;SDS011;17702;47.590;7.666;2024-03-02T11:17:20;5.18;;;4.40;;
31037;SDS011;17702;47.590;7.666;2024-03-02T11:19:46;4.75;;;3.80;;
31037;SDS011;17702;47.590;7.666;2024-03-02T11:22:13;4.05;;;3.70;;
31037;SDS011;17702;47.590;7.666;2024-03-02T11:24:41;4.78;;;3.90;;
31037;SDS011;17702;47.590;7.666;2024-03-02T11:27:14;4.28;;;3.88;;
31037;SDS011;17702;47.590;7.666;2024-03-02T11:34:43;4.20;;;3.90;;
31037;SDS011;17702;47.590;7.666;2024-03-02T11:37:14;5.65;;;3.70;;
31037;SDS011;17702;47.590;7.666;2024-03-02T11:39:42;5.03;;;4.50;;
31037;SDS011;17702;47.590;7.666;2024-03-02T11:42:09;5.80;;;4.50;;
31037;SDS011;17702;47.590;7.666;2024-03-02T11:44:36;4.60;;;4.25;;
31037;SDS011;17702;47.590;7.666;2024-03-02T11:47:07;4.65;;;4.35;;
31037;SDS011;17702;47.590;7.666;2024-03-02T11:49:45;5.78;;;3.40;;
31037;SDS011;17702;47.590;7.666;2024-03-02T11:52:15;20.85;;;16.42;;
31037;SDS011;17702;47.590;7.666;2024-03-02T11:54:43;4.53;;;4.13;;
31037;SDS011;17702;47.590;7.666;2024-03-02T11:57:22;3.92;;;3.25;;
31037;SDS011;17702;47.590;7.666;2024-03-02T11:59:48;4.07;;;3.40;;
31037;SDS011;17702;47.590;7.666;2024-03-02T12:02:21;3.83;;;3.33;;
31037;SDS011;17702;47.590;7.666;2024-03-02T12:04:47;7.50;;;4.30;;
31037;SDS011;17702;47.590;7.666;2024-03-02T12:07:19;4.28;;;3.50;;
31037;SDS011;17702;47.590;7.666;2024-03-02T12:09:49;4.60;;;3.20;;
31037;SDS011;17702;47.590;7.666;2024-03-02T12:12:25;3.92;;;2.45;;
31037;SDS011;17702;47.590;7.666;2024-03-02T12:14:52;4.55;;;4.03;;
31037;SDS011;17702;47.590;7.666;2024-03-02T12:17:20;5.10;;;4.70;;
31037;SDS011;17702;47.590;7.666;2024-03-02T12:19:46;5.63;;;4.57;;
31037;SDS011;17702;47.590;7.666;2024-03-02T12:22:11;5.07;;;4.10;;
31037;SDS011;17702;47.590;7.666;2024-03-02T12:24:37;4.55;;;4.15;;
31037;SDS011;17702;47.590;7.666;2024-03-02T12:27:03;10.48;;;6.72;;
31037;SDS011;17702;47.590;7.666;2024-03-02T12:29:30;15.02;;;9.48;;
31037;SDS011;17702;47.590;7.666;2024-03-02T12:31:56;13.05;;;8.02;;
31037;SDS011;17702;47.590;7.666;2024-03-02T12:34:22;13.55;;;9.25;;
31037;SDS011;17702;47.590;7.666;2024-03-02T12:36:48;14.00;;;9.07;;
31037;SDS011;17702;47.590;7.666;2024-03-02T12:39:20;8.48;;;6.20;;
31037;SDS011;17702;47.590;7.666;2024-03-02T12:41:48;8.48;;;5.25;;
31037;SDS011;17702;47.590;7.666;2024-03-02T12:44:15;6.47;;;5.32;;
31037;SDS011;17702;47.590;7.666;2024-03-02T12:46:41;6.80;;;5.28;;
31037;SDS011;17702;47.590;7.666;2024-03-02T12:49:14;8.43;;;5.55;;
31037;SDS011;17702;47.590;7.666;2024-03-02T12:51:45;6.40;;;5.45;;
31037;SDS011;17702;47.590;7.666;2024-03-02T12:54:16;4.80;;;4.40;;
31037;SDS011;17702;47.590;7.666;2024-03-02T12:56:42;5.65;;;5.15;;
31037;SDS011;17702;47.590;7.666;2024-03-02T12:59:18;11.82;;;7.53;;
31037;SDS011;17702;47.590;7.666;2024-03-02T13:01:50;7.25;;;5.95;;
31037;SDS011;17702;47.590;7.666;2024-03-02T13:04:16;8.10;;;5.55;;
31037;SDS011;17702;47.590;7.666;2024-03-02T13:06:41;9.75;;;7.45;;
31037;SDS011;17702;47.590;7.666;2024-03-02T13:09:07;6.95;;;5.25;;
31037;SDS011;17702;47.590;7.666;2024-03-02T13:11:39;7.03;;;5.10;;
31037;SDS011;17702;47.590;7.666;2024-03-02T13:14:06;5.10;;;4.60;;
31037;SDS011;17702;47.590;7.666;2024-03-02T13:16:32;5.47;;;4.07;;
31037;SDS011;17702;47.590;7.666;2024-03-02T13:19:03;4.13;;;3.65;;
31037;SDS011;17702;47.590;7.666;2024-03-02T13:21:28;3.83;;;3.42;;
31037;SDS011;17702;47.590;7.666;2024-03-02T13:23:54;3.42;;;3.13;;
31037;SDS011;17702;47.590;7.666;2024-03-02T13:26:19;3.10;;;2.80;;
31037;SDS011;17702;47.590;7.666;2024-03-02T13:28:45;3.03;;;2.83;;
31037;SDS011;17702;47.590;7.666;2024-03-02T13:31:11;5.28;;;2.90;;
31037;SDS011;17702;47.590;7.666;2024-03-02T13:33:37;3.13;;;2.92;;
31037;SDS011;17702;47.590;7.666;2024-03-02T13:36:02;3.22;;;2.85;;
31037;SDS011;17702;47.590;7.666;2024-03-02T13:38:28;2.80;;;2.60;;
31037;SDS011;17702;47.590;7.666;2024-03-02T13:40:53;2.88;;;2.60;;
31037;SDS011;17702;47.590;7.666;2024-03-02T13:43:19;2.92;;;2.67;;
31037;SDS011;17702;47.590;7.666;2024-03-02T13:45:45;3.22;;;3.03;;
31037;SDS011;17702;47.590;7.666;2024-03-02T13:48:10;3.97;;;3.53;;
31037;SDS011;17702;47.590;7.666;2024-03-02T13:50:36;3.80;;;3.50;;
31037;SDS011;17702;47.590;7.666;2024-03-02T13:53:02;4.43;;;3.47;;
31037;SDS011;17702;47.590;7.666;2024-03-02T13:55:28;3.13;;;2.92;;
31037;SDS011;17702;47.590;7.666;2024-03-02T13:57:54;3.70;;;3.40;;
31037;SDS011;17702;47.590;7.666;2024-03-02T14:00:19;4.05;;;3.75;;
31037;SDS011;17702;47.590;7.666;2024-03-02T14:02:45;4.45;;;4.05;;
31037;SDS011;17702;47.590;7.666;2024-03-02T14:05:11;4.80;;;4.30;;
31037;SDS011;17702;47.590;7.666;2024-03-02T14:07:38;8.90;;;7.03;;
31037;SDS011;17702;47.590;7.666;2024-03-02T14:10:05;14.15;;;10.77;;
31037;SDS011;17702;47.590;7.666;2024-03-02T14:12:31;6.25;;;4.75;;
31037;SDS011;17702;47.590;7.666;2024-03-02T14:14:56;5.75;;;3.63;;
31037;SDS011;17702;47.590;7.666;2024-03-02T14:17:23;3.67;;;3.38;;
31037;SDS011;17702;47.590;7.666;2024-03-02T14:19:49;3.55;;;3.25;;
31037;SDS011;17702;47.590;7.666;2024-03-02T14:22:16;3.53;;;3.30;;
31037;SDS011;17702;47.590;7.666;2024-03-02T14:24:42;3.75;;;2.78;;
31037;SDS011;17702;47.590;7.666;2024-03-02T14:27:08;3.90;;;3.55;;
31037;SDS011;17702;47.590;7.666;2024-03-02T14:29:34;4.05;;;3.67;;
31037;SDS011;17702;47.590;7.666;2024-03-02T14:32:02;3.92;;;3.63;;
31037;SDS011;17702;47.590;7.666;2024-03-02T14:34:31;5.80;;;4.43;;
31037;SDS011;17702;47.590;7.666;2024-03-02T14:36:56;5.45;;;3.28;;
31037;SDS011;17702;47.590;7.666;2024-03-02T14:39:22;3.92;;;3.60;;